Aristoklis — V7WV9 — position and weather

sailwx.info

Track history (hours):
 
Tides and Currents Weather Stations Pressure Air Temp Water Temp Dewpoint Dewpoint Depression Visibility Wind Speed Wind Dir Waves Ship Positions

Aristoklis

Last reported at 2017-Nov-16 07:37 UTC. Time now 2017-Dec-16 09:21 UTC.
Position N 01°19' E 103°18'.
Warning: this ship's position is 30 days out of date.

Length 250 m; draft 8.7 m.

Type: Tanker. MMSI: 538007127.

Date/timePositionNaut miles runAvg speedWind from/ knotsBaromVisibWave heightAir tempDewpointWater temp
2017-Nov-16 07:37N 01°19' E 103°18'111.4
2017-Nov-16 07:29N 01°18' E 103°19'511.1
2017-Nov-16 07:00N 01°15' E 103°23'510.7
2017-Nov-16 06:30N 01°13' E 103°28'611.1
2017-Nov-16 06:00N 01°12' E 103°34'510.5
2017-Nov-16 05:30N 01°11' E 103°39'5 9.4
2017-Nov-16 05:00N 01°09' E 103°43'4 8.8
2017-Nov-16 04:30N 01°10' E 103°47'511.0
2017-Nov-16 04:00N 01°13' E 103°52'4 8.6
2017-Nov-16 03:30N 01°15' E 103°56'1 1.2
2017-Nov-16 02:31N 01°16' E 103°55'0 0.1
2017-Nov-16 02:19N 01°16' E 103°55'0 0.0
2017-Nov-16 01:49N 01°16' E 103°55'0 0.0
2017-Nov-16 01:19N 01°16' E 103°55'0 0.0
2017-Nov-16 01:00N 01°16' E 103°55'0 0.0
2017-Nov-16 00:28N 01°16' E 103°55'0 0.0
2017-Nov-16 00:00N 01°16' E 103°55'0 0.0
2017-Nov-15 23:30N 01°16' E 103°55'0 0.0
2017-Nov-15 22:59N 01°16' E 103°55'0 0.0
2017-Nov-15 22:30N 01°16' E 103°55'0 0.0
2017-Nov-15 22:00N 01°16' E 103°55'0 0.0
2017-Nov-15 21:30N 01°16' E 103°55'0 0.0
2017-Nov-15 21:00N 01°16' E 103°55'0 0.2
2017-Nov-15 20:30N 01°16' E 103°55'0 0.2
2017-Nov-15 20:00N 01°16' E 103°55'0 0.1
2017-Nov-15 19:30N 01°16' E 103°55'0 0.1
2017-Nov-15 19:00N 01°16' E 103°55'0 0.0
2017-Nov-15 18:30N 01°16' E 103°55'0 0.0
2017-Nov-15 18:00N 01°16' E 103°55'0 0.0
2017-Nov-15 17:30N 01°16' E 103°55'0 0.0
2017-Nov-15 17:00N 01°16' E 103°55'0 0.1
2017-Nov-15 16:30N 01°16' E 103°55'0 0.0
2017-Nov-15 16:00N 01°16' E 103°55'0 0.1
2017-Nov-15 15:30N 01°16' E 103°55'0 0.1
2017-Nov-15 15:00N 01°16' E 103°55'0 0.0
2017-Nov-15 14:30N 01°16' E 103°55'0 0.0
2017-Nov-15 13:59N 01°16' E 103°55'0 0.0
2017-Nov-15 13:30N 01°16' E 103°55'0 0.0
2017-Nov-15 12:58N 01°16' E 103°55'0 0.0
2017-Nov-15 12:30N 01°16' E 103°55'0 0.1
2017-Nov-15 12:00N 01°16' E 103°55'0 0.0
2017-Nov-15 11:30N 01°16' E 103°55'0 0.0
2017-Nov-15 11:00N 01°16' E 103°55'0 0.2
2017-Nov-15 10:30N 01°16' E 103°55'0 0.2
2017-Nov-15 10:00N 01°16' E 103°55'0 0.3
2017-Nov-15 09:30N 01°16' E 103°55'0 0.0
2017-Nov-15 09:00N 01°16' E 103°55'0 0.0
2017-Nov-15 08:30N 01°16' E 103°55'0 0.0
2017-Nov-15 08:00N 01°16' E 103°55'0 0.1
2017-Nov-15 07:30N 01°16' E 103°55'0 0.0
2017-Nov-15 07:00N 01°16' E 103°55'0 0.0
2017-Nov-15 06:29N 01°16' E 103°55'0 0.0
2017-Nov-15 06:00N 01°16' E 103°55'0 0.0
2017-Nov-15 05:30N 01°16' E 103°55'0 0.0
2017-Nov-15 05:00N 01°16' E 103°55'0 0.1
2017-Nov-15 04:30N 01°16' E 103°55'1 2.9
2017-Nov-15 04:00N 01°16' E 103°56'3 6.1
2017-Nov-15 03:30N 01°16' E 103°59'4 8.0
2017-Nov-15 02:58N 01°17' E 104°04'510.0
2017-Nov-15 02:29N 01°17' E 104°09'  
Track history (hours):
 
Tides and Currents Weather Stations Pressure Air Temp Water Temp Dewpoint Dewpoint Depression Visibility Wind Speed Wind Dir Waves Ship Positions

Aristoklis

Last reported at 2017-Nov-16 07:37 UTC. Time now 2017-Dec-16 09:21 UTC.
Position N 01°19' E 103°18'.
Warning: this ship's position is 30 days out of date.

Length 250 m; draft 8.7 m.

Type: Tanker. MMSI: 538007127.

Date/timePositionNaut miles runAvg speedWind from/ knotsBaromVisibWave heightAir tempDewpointWater temp
2017-Nov-16 07:37N 01°19' E 103°18'111.4
2017-Nov-16 07:29N 01°18' E 103°19'511.1
2017-Nov-16 07:00N 01°15' E 103°23'510.7
2017-Nov-16 06:30N 01°13' E 103°28'611.1
2017-Nov-16 06:00N 01°12' E 103°34'510.5
2017-Nov-16 05:30N 01°11' E 103°39'5 9.4
2017-Nov-16 05:00N 01°09' E 103°43'4 8.8
2017-Nov-16 04:30N 01°10' E 103°47'511.0
2017-Nov-16 04:00N 01°13' E 103°52'4 8.6
2017-Nov-16 03:30N 01°15' E 103°56'1 1.2
2017-Nov-16 02:31N 01°16' E 103°55'0 0.1
2017-Nov-16 02:19N 01°16' E 103°55'0 0.0
2017-Nov-16 01:49N 01°16' E 103°55'0 0.0
2017-Nov-16 01:19N 01°16' E 103°55'0 0.0
2017-Nov-16 01:00N 01°16' E 103°55'0 0.0
2017-Nov-16 00:28N 01°16' E 103°55'0 0.0
2017-Nov-16 00:00N 01°16' E 103°55'0 0.0
2017-Nov-15 23:30N 01°16' E 103°55'0 0.0
2017-Nov-15 22:59N 01°16' E 103°55'0 0.0
2017-Nov-15 22:30N 01°16' E 103°55'0 0.0
2017-Nov-15 22:00N 01°16' E 103°55'0 0.0
2017-Nov-15 21:30N 01°16' E 103°55'0 0.0
2017-Nov-15 21:00N 01°16' E 103°55'0 0.2
2017-Nov-15 20:30N 01°16' E 103°55'0 0.2
2017-Nov-15 20:00N 01°16' E 103°55'0 0.1
2017-Nov-15 19:30N 01°16' E 103°55'0 0.1
2017-Nov-15 19:00N 01°16' E 103°55'0 0.0
2017-Nov-15 18:30N 01°16' E 103°55'0 0.0
2017-Nov-15 18:00N 01°16' E 103°55'0 0.0
2017-Nov-15 17:30N 01°16' E 103°55'0 0.0
2017-Nov-15 17:00N 01°16' E 103°55'0 0.1
2017-Nov-15 16:30N 01°16' E 103°55'0 0.0
2017-Nov-15 16:00N 01°16' E 103°55'0 0.1
2017-Nov-15 15:30N 01°16' E 103°55'0 0.1
2017-Nov-15 15:00N 01°16' E 103°55'0 0.0
2017-Nov-15 14:30N 01°16' E 103°55'0 0.0
2017-Nov-15 13:59N 01°16' E 103°55'0 0.0
2017-Nov-15 13:30N 01°16' E 103°55'0 0.0
2017-Nov-15 12:58N 01°16' E 103°55'0 0.0
2017-Nov-15 12:30N 01°16' E 103°55'0 0.1
2017-Nov-15 12:00N 01°16' E 103°55'0 0.0
2017-Nov-15 11:30N 01°16' E 103°55'0 0.0
2017-Nov-15 11:00N 01°16' E 103°55'0 0.2
2017-Nov-15 10:30N 01°16' E 103°55'0 0.2
2017-Nov-15 10:00N 01°16' E 103°55'0 0.3
2017-Nov-15 09:30N 01°16' E 103°55'0 0.0
2017-Nov-15 09:00N 01°16' E 103°55'0 0.0
2017-Nov-15 08:30N 01°16' E 103°55'0 0.0
2017-Nov-15 08:00N 01°16' E 103°55'0 0.1
2017-Nov-15 07:30N 01°16' E 103°55'0 0.0
2017-Nov-15 07:00N 01°16' E 103°55'0 0.0
2017-Nov-15 06:29N 01°16' E 103°55'0 0.0
2017-Nov-15 06:00N 01°16' E 103°55'0 0.0
2017-Nov-15 05:30N 01°16' E 103°55'0 0.0
2017-Nov-15 05:00N 01°16' E 103°55'0 0.1
2017-Nov-15 04:30N 01°16' E 103°55'1 2.9
2017-Nov-15 04:00N 01°16' E 103°56'3 6.1
2017-Nov-15 03:30N 01°16' E 103°59'4 8.0
2017-Nov-15 02:58N 01°17' E 104°04'510.0
2017-Nov-15 02:29N 01°17' E 104°09'  

Dump ship's entire track history